RYR6887 LHBP-LATI
Flight info
| Callsign | RYR6887 |
|---|---|
| Flight time | 0h 56m |
| Altitude | 35000 |
| Route | FAHAZ DCT KEROP DCT TORTO/N0435F340 DCT YUYUH/N0438F350 DCT AKIKA DCT INLOT |
| Aircraft | B738/M-SDE2E3FGHIRWXY/LB1 |
Departure
| Time | 2026-05-04 06:44 |
|---|---|
| Airport | Budapest Liszt Ferenc International Airport (LHBP) |
Arrival
| Time | 2026-05-04 07:40 |
|---|---|
| Airport | Tirana International Airport Mother Teresa (LATI) |
| Time | Latitude | Longitude | Altitude | Speed | Heading |
|---|---|---|---|---|---|
| 2026-05-04 06:22 | 47.43189 | 19.25883 | 454 ft | 0 kts | 43° |
| 2026-05-04 06:34 | 47.43188 | 19.25883 | 456 ft | 1 kts | 43° |
| 2026-05-04 06:34 | 47.43171 | 19.25860 | 454 ft | 4 kts | 43° |
| 2026-05-04 06:34 | 47.43154 | 19.25836 | 454 ft | 2 kts | 43° |
| 2026-05-04 06:35 | 47.43133 | 19.25816 | 456 ft | 4 kts | 14° |
| 2026-05-04 06:36 | 47.43078 | 19.25861 | 455 ft | 0 kts | 313° |
| 2026-05-04 06:40 | 47.43464 | 19.25547 | 456 ft | 16 kts | 40° |
| 2026-05-04 06:40 | 47.43559 | 19.25676 | 456 ft | 21 kts | 42° |
| 2026-05-04 06:40 | 47.43673 | 19.25829 | 456 ft | 22 kts | 42° |
| 2026-05-04 06:40 | 47.43787 | 19.25981 | 456 ft | 22 kts | 42° |
| 2026-05-04 06:41 | 47.43896 | 19.26129 | 457 ft | 21 kts | 43° |
| 2026-05-04 06:41 | 47.44003 | 19.26272 | 459 ft | 20 kts | 42° |
| 2026-05-04 06:41 | 47.44070 | 19.26443 | 471 ft | 20 kts | 85° |
| 2026-05-04 06:41 | 47.44049 | 19.26555 | 470 ft | 14 kts | 128° |
| 2026-05-04 06:42 | 47.43864 | 19.26855 | 471 ft | 67 kts | 132° |
| 2026-05-04 06:42 | 47.43388 | 19.27622 | 461 ft | 133 kts | 132° |
| 2026-05-04 06:42 | 47.42623 | 19.28813 | 514 ft | 181 kts | 135° |
| 2026-05-04 06:44 | 47.37084 | 19.40621 | 4552 ft | 250 kts | 165° |
| 2026-05-04 06:44 | 47.35364 | 19.40736 | 5371 ft | 252 kts | 194° |
| 2026-05-04 06:44 | 47.33806 | 19.39515 | 6103 ft | 261 kts | 222° |
| 2026-05-04 06:45 | 47.32660 | 19.37393 | 6877 ft | 269 kts | 237° |
| 2026-05-04 06:45 | 47.31719 | 19.34966 | 7609 ft | 277 kts | 240° |
| 2026-05-04 06:45 | 47.30578 | 19.32684 | 8335 ft | 280 kts | 216° |
| 2026-05-04 06:45 | 47.28795 | 19.31598 | 9096 ft | 282 kts | 185° |
| 2026-05-04 06:46 | 47.26828 | 19.31769 | 9835 ft | 286 kts | 167° |
| 2026-05-04 06:46 | 47.24857 | 19.32415 | 10431 ft | 298 kts | 165° |
| 2026-05-04 06:46 | 47.22761 | 19.33189 | 10608 ft | 322 kts | 165° |
| 2026-05-04 06:46 | 47.20563 | 19.34017 | 11019 ft | 336 kts | 164° |
| 2026-05-04 06:48 | 47.04050 | 19.39976 | 15870 ft | 364 kts | 165° |
| 2026-05-04 06:48 | 47.01575 | 19.40850 | 16496 ft | 368 kts | 165° |
| 2026-05-04 06:49 | 46.99063 | 19.41735 | 17105 ft | 372 kts | 165° |
| 2026-05-04 06:50 | 46.80758 | 19.48156 | 21012 ft | 400 kts | 165° |
| 2026-05-04 06:51 | 46.78035 | 19.49108 | 21534 ft | 403 kts | 165° |
| 2026-05-04 06:51 | 46.75285 | 19.50067 | 22055 ft | 407 kts | 165° |
| 2026-05-04 06:51 | 46.72524 | 19.51030 | 22562 ft | 410 kts | 165° |
| 2026-05-04 06:51 | 46.69764 | 19.51992 | 23056 ft | 414 kts | 165° |
| 2026-05-04 06:52 | 46.66946 | 19.52974 | 23545 ft | 417 kts | 165° |
| 2026-05-04 06:52 | 46.64107 | 19.53962 | 23984 ft | 420 kts | 165° |
| 2026-05-04 06:52 | 46.61244 | 19.54956 | 24382 ft | 424 kts | 165° |
| 2026-05-04 06:52 | 46.58362 | 19.55956 | 24776 ft | 427 kts | 165° |
| 2026-05-04 06:53 | 46.55492 | 19.56950 | 25152 ft | 430 kts | 165° |
| 2026-05-04 06:53 | 46.52568 | 19.57961 | 25541 ft | 433 kts | 165° |
| 2026-05-04 06:53 | 46.49620 | 19.58980 | 25916 ft | 436 kts | 165° |
| 2026-05-04 06:53 | 46.46645 | 19.60007 | 26274 ft | 440 kts | 165° |
| 2026-05-04 06:54 | 46.43652 | 19.61039 | 26631 ft | 443 kts | 165° |
| 2026-05-04 06:54 | 46.40683 | 19.62061 | 26984 ft | 446 kts | 165° |
| 2026-05-04 06:54 | 46.37652 | 19.63104 | 27336 ft | 449 kts | 165° |
| 2026-05-04 06:54 | 46.34600 | 19.64152 | 27678 ft | 452 kts | 165° |
| 2026-05-04 06:55 | 46.31524 | 19.65208 | 28011 ft | 455 kts | 165° |
| 2026-05-04 06:55 | 46.28432 | 19.66268 | 28339 ft | 457 kts | 165° |
| 2026-05-04 06:55 | 46.25309 | 19.67338 | 28660 ft | 460 kts | 165° |
| 2026-05-04 06:55 | 46.22225 | 19.68393 | 28988 ft | 463 kts | 165° |
| 2026-05-04 06:56 | 46.19073 | 19.69421 | 29288 ft | 466 kts | 169° |
| 2026-05-04 06:57 | 45.95979 | 19.70016 | 31498 ft | 474 kts | 179° |
| 2026-05-04 06:58 | 45.92685 | 19.70054 | 31848 ft | 473 kts | 179° |
| 2026-05-04 06:58 | 45.89390 | 19.70099 | 32153 ft | 473 kts | 179° |
| 2026-05-04 06:58 | 45.86102 | 19.70147 | 32484 ft | 472 kts | 179° |
| 2026-05-04 06:58 | 45.82854 | 19.70194 | 32830 ft | 471 kts | 179° |
| 2026-05-04 06:59 | 45.79575 | 19.70242 | 33164 ft | 470 kts | 179° |
| 2026-05-04 06:59 | 45.76383 | 19.70288 | 33470 ft | 470 kts | 179° |
| 2026-05-04 06:59 | 45.73072 | 19.70335 | 33795 ft | 469 kts | 179° |
| 2026-05-04 06:59 | 45.69809 | 19.70380 | 34109 ft | 468 kts | 179° |
| 2026-05-04 07:01 | 45.46975 | 19.70696 | 35182 ft | 472 kts | 179° |
| 2026-05-04 07:01 | 45.43734 | 19.70741 | 35173 ft | 469 kts | 179° |
| 2026-05-04 07:02 | 45.37238 | 19.70830 | 35179 ft | 466 kts | 179° |
| 2026-05-04 07:02 | 45.30743 | 19.70919 | 35185 ft | 465 kts | 179° |
| 2026-05-04 07:03 | 45.24263 | 19.71008 | 35187 ft | 465 kts | 179° |
| 2026-05-04 07:03 | 45.17824 | 19.71096 | 35189 ft | 466 kts | 179° |
| 2026-05-04 07:04 | 45.11338 | 19.71184 | 35179 ft | 467 kts | 179° |
| 2026-05-04 07:04 | 45.04807 | 19.71273 | 35189 ft | 468 kts | 179° |
| 2026-05-04 07:05 | 44.98312 | 19.71361 | 35188 ft | 470 kts | 179° |
| 2026-05-04 07:05 | 44.91745 | 19.71450 | 35193 ft | 472 kts | 179° |
| 2026-05-04 07:06 | 44.81888 | 19.71583 | 35192 ft | 474 kts | 179° |
| 2026-05-04 07:07 | 44.75274 | 19.71672 | 35197 ft | 476 kts | 179° |
| 2026-05-04 07:09 | 44.48755 | 19.72027 | 35185 ft | 476 kts | 179° |
| 2026-05-04 07:09 | 44.42130 | 19.72115 | 35188 ft | 476 kts | 179° |
| 2026-05-04 07:10 | 44.35510 | 19.72203 | 35187 ft | 475 kts | 180° |
| 2026-05-04 07:12 | 44.09073 | 19.72552 | 35189 ft | 475 kts | 180° |
| 2026-05-04 07:12 | 44.02457 | 19.72639 | 35209 ft | 475 kts | 180° |
| 2026-05-04 07:13 | 43.95894 | 19.72725 | 35209 ft | 475 kts | 180° |
| 2026-05-04 07:13 | 43.89282 | 19.72811 | 35212 ft | 475 kts | 180° |
| 2026-05-04 07:14 | 43.76486 | 19.72689 | 35164 ft | 438 kts | 182° |
| 2026-05-04 07:14 | 43.73451 | 19.72615 | 34818 ft | 435 kts | 182° |
| 2026-05-04 07:15 | 43.70400 | 19.72544 | 34083 ft | 443 kts | 182° |
| 2026-05-04 07:15 | 43.67284 | 19.72477 | 33270 ft | 451 kts | 181° |
| 2026-05-04 07:15 | 43.64142 | 19.72415 | 32782 ft | 450 kts | 181° |
| 2026-05-04 07:15 | 43.61030 | 19.72357 | 32462 ft | 445 kts | 181° |
| 2026-05-04 07:16 | 43.57941 | 19.72301 | 32120 ft | 441 kts | 181° |
| 2026-05-04 07:16 | 43.54882 | 19.72247 | 31743 ft | 439 kts | 181° |
| 2026-05-04 07:16 | 43.51835 | 19.72193 | 31342 ft | 437 kts | 181° |
| 2026-05-04 07:16 | 43.48802 | 19.72139 | 30959 ft | 435 kts | 181° |
| 2026-05-04 07:17 | 43.45777 | 19.72086 | 30580 ft | 433 kts | 181° |
| 2026-05-04 07:17 | 43.42815 | 19.72033 | 30250 ft | 430 kts | 181° |
| 2026-05-04 07:17 | 43.39838 | 19.71980 | 29834 ft | 427 kts | 181° |
| 2026-05-04 07:17 | 43.36874 | 19.71927 | 29440 ft | 423 kts | 181° |
| 2026-05-04 07:18 | 43.33944 | 19.71875 | 29045 ft | 421 kts | 181° |
| 2026-05-04 07:18 | 43.31020 | 19.71823 | 28617 ft | 419 kts | 181° |
| 2026-05-04 07:18 | 43.28116 | 19.71771 | 28217 ft | 416 kts | 181° |
| 2026-05-04 07:18 | 43.25226 | 19.71720 | 27816 ft | 413 kts | 181° |
| 2026-05-04 07:19 | 43.22364 | 19.71669 | 27416 ft | 411 kts | 181° |
| 2026-05-04 07:19 | 43.19509 | 19.71618 | 27051 ft | 409 kts | 181° |
| 2026-05-04 07:19 | 43.16672 | 19.71568 | 26691 ft | 406 kts | 181° |
| 2026-05-04 07:19 | 43.13856 | 19.71518 | 26324 ft | 404 kts | 181° |
| 2026-05-04 07:20 | 43.11047 | 19.71468 | 25981 ft | 402 kts | 181° |
| 2026-05-04 07:20 | 43.08265 | 19.71419 | 25626 ft | 399 kts | 181° |
| 2026-05-04 07:20 | 43.05491 | 19.71370 | 25275 ft | 397 kts | 181° |
| 2026-05-04 07:20 | 43.02730 | 19.71321 | 24929 ft | 395 kts | 181° |
| 2026-05-04 07:22 | 42.83872 | 19.70989 | 22481 ft | 380 kts | 180° |
| 2026-05-04 07:22 | 42.81237 | 19.70943 | 22139 ft | 378 kts | 180° |
| 2026-05-04 07:23 | 42.78609 | 19.70897 | 21800 ft | 376 kts | 180° |
| 2026-05-04 07:23 | 42.75997 | 19.70851 | 21442 ft | 374 kts | 180° |
| 2026-05-04 07:23 | 42.73403 | 19.70806 | 21093 ft | 372 kts | 180° |
| 2026-05-04 07:23 | 42.70815 | 19.70761 | 20769 ft | 370 kts | 180° |
| 2026-05-04 07:24 | 42.68264 | 19.70716 | 20424 ft | 368 kts | 179° |
| 2026-05-04 07:24 | 42.65690 | 19.70671 | 20132 ft | 366 kts | 179° |
| 2026-05-04 07:24 | 42.63153 | 19.70628 | 19834 ft | 364 kts | 179° |
| 2026-05-04 07:24 | 42.60620 | 19.70584 | 19507 ft | 362 kts | 179° |
| 2026-05-04 07:25 | 42.58137 | 19.70540 | 19185 ft | 360 kts | 179° |
| 2026-05-04 07:26 | 42.41559 | 19.70252 | 17068 ft | 347 kts | 179° |
| 2026-05-04 07:27 | 42.39148 | 19.70211 | 16724 ft | 344 kts | 179° |
| 2026-05-04 07:27 | 42.36749 | 19.70171 | 16399 ft | 345 kts | 179° |
| 2026-05-04 07:27 | 42.34351 | 19.70130 | 16099 ft | 343 kts | 179° |
| 2026-05-04 07:27 | 42.31968 | 19.70088 | 15803 ft | 341 kts | 179° |
| 2026-05-04 07:28 | 42.29600 | 19.70047 | 15504 ft | 339 kts | 179° |
| 2026-05-04 07:28 | 42.27253 | 19.70007 | 15198 ft | 336 kts | 179° |
| 2026-05-04 07:28 | 42.24922 | 19.69966 | 14837 ft | 336 kts | 179° |
| 2026-05-04 07:28 | 42.22579 | 19.69927 | 14492 ft | 336 kts | 179° |
| 2026-05-04 07:29 | 42.20247 | 19.69887 | 14233 ft | 333 kts | 179° |
| 2026-05-04 07:29 | 42.17987 | 19.69850 | 13980 ft | 331 kts | 179° |
| 2026-05-04 07:29 | 42.15690 | 19.69812 | 13710 ft | 328 kts | 179° |
| 2026-05-04 07:29 | 42.13411 | 19.69771 | 13395 ft | 327 kts | 179° |
| 2026-05-04 07:30 | 42.11149 | 19.69731 | 13214 ft | 321 kts | 179° |
| 2026-05-04 07:30 | 42.08938 | 19.69692 | 13035 ft | 316 kts | 178° |
| 2026-05-04 07:30 | 42.06750 | 19.69653 | 12737 ft | 314 kts | 179° |
| 2026-05-04 07:30 | 42.04570 | 19.69616 | 12489 ft | 311 kts | 179° |
| 2026-05-04 07:31 | 42.02426 | 19.69580 | 12175 ft | 307 kts | 179° |
| 2026-05-04 07:31 | 42.01010 | 19.69556 | 11893 ft | 306 kts | 179° |
| 2026-05-04 07:33 | 41.86563 | 19.69313 | 9055 ft | 288 kts | 179° |
| 2026-05-04 07:33 | 41.84570 | 19.69276 | 8665 ft | 285 kts | 180° |
| 2026-05-04 07:33 | 41.82595 | 19.69244 | 8273 ft | 282 kts | 180° |
| 2026-05-04 07:33 | 41.80644 | 19.69209 | 7908 ft | 278 kts | 180° |
| 2026-05-04 07:34 | 41.78717 | 19.69178 | 7467 ft | 277 kts | 180° |
| 2026-05-04 07:34 | 41.76792 | 19.69143 | 7074 ft | 276 kts | 180° |
| 2026-05-04 07:34 | 41.74889 | 19.69115 | 6725 ft | 271 kts | 180° |
| 2026-05-04 07:34 | 41.73018 | 19.69081 | 6411 ft | 267 kts | 180° |
| 2026-05-04 07:35 | 41.71173 | 19.69050 | 6138 ft | 261 kts | 180° |
| 2026-05-04 07:35 | 41.69396 | 19.69021 | 6000 ft | 250 kts | 180° |
| 2026-05-04 07:35 | 41.67676 | 19.68990 | 5802 ft | 242 kts | 180° |
| 2026-05-04 07:35 | 41.66015 | 19.68956 | 5608 ft | 234 kts | 181° |
| 2026-05-04 07:36 | 41.64428 | 19.68940 | 5312 ft | 230 kts | 177° |
| 2026-05-04 07:36 | 41.62833 | 19.69066 | 4947 ft | 227 kts | 174° |
| 2026-05-04 07:38 | 41.51970 | 19.70572 | 2063 ft | 215 kts | 173° |
| 2026-05-04 07:38 | 41.50536 | 19.70777 | 1745 ft | 200 kts | 173° |
| 2026-05-04 07:38 | 41.49200 | 19.70964 | 1476 ft | 186 kts | 174° |
| 2026-05-04 07:38 | 41.47959 | 19.71138 | 1271 ft | 172 kts | 174° |
| 2026-05-04 07:39 | 41.46815 | 19.71295 | 988 ft | 162 kts | 174° |
| 2026-05-04 07:39 | 41.45803 | 19.71448 | 733 ft | 159 kts | 174° |
| 2026-05-04 07:39 | 41.44706 | 19.71609 | 567 ft | 158 kts | 173° |
| 2026-05-04 07:39 | 41.43612 | 19.71767 | 357 ft | 158 kts | 174° |
| 2026-05-04 07:40 | 41.42618 | 19.71902 | 155 ft | 155 kts | 174° |
| 2026-05-04 07:40 | 41.41618 | 19.72037 | 126 ft | 132 kts | 174° |
| 2026-05-04 07:40 | 41.40924 | 19.72131 | 129 ft | 51 kts | 174° |
| 2026-05-04 07:40 | 41.40714 | 19.72153 | 133 ft | 17 kts | 188° |
| 2026-05-04 07:41 | 41.40664 | 19.72028 | 127 ft | 16 kts | 256° |
| 2026-05-04 07:41 | 41.40638 | 19.71888 | 131 ft | 15 kts | 256° |
| 2026-05-04 07:41 | 41.40640 | 19.71777 | 129 ft | 11 kts | 320° |
| 2026-05-04 07:41 | 41.40714 | 19.71756 | 128 ft | 11 kts | 354° |
| 2026-05-04 07:42 | 41.40805 | 19.71739 | 130 ft | 16 kts | 350° |
| 2026-05-04 07:42 | 41.40937 | 19.71709 | 130 ft | 23 kts | 351° |
| 2026-05-04 07:42 | 41.41115 | 19.71684 | 129 ft | 29 kts | 354° |
| 2026-05-04 07:42 | 41.41321 | 19.71657 | 128 ft | 29 kts | 354° |
| 2026-05-04 07:43 | 41.41519 | 19.71630 | 130 ft | 28 kts | 354° |
| 2026-05-04 07:43 | 41.41704 | 19.71605 | 131 ft | 26 kts | 355° |
| 2026-05-04 07:43 | 41.41878 | 19.71585 | 131 ft | 24 kts | 354° |
| 2026-05-04 07:43 | 41.42019 | 19.71566 | 130 ft | 17 kts | 354° |
| 2026-05-04 07:44 | 41.42056 | 19.71558 | 130 ft | 1 kts | 339° |
| 2026-05-04 07:44 | 41.42066 | 19.71547 | 129 ft | 3 kts | 307° |
| 2026-05-04 07:44 | 41.42069 | 19.71507 | 131 ft | 5 kts | 264° |
| 2026-05-04 07:44 | 41.42068 | 19.71500 | 129 ft | 1 kts | 264° |
| 2026-05-04 07:45 | 41.42067 | 19.71490 | 130 ft | 0 kts | 264° |